sensor_id;sensor_type;location;lat;lon;timestamp;P1;durP1;ratioP1;P2;durP2;ratioP2
37299;SDS011;23184;51.902;12.836;2023-12-07T00:01:06;46.17;;;22.48;;
37299;SDS011;23184;51.902;12.836;2023-12-07T00:03:31;48.30;;;21.83;;
37299;SDS011;23184;51.902;12.836;2023-12-07T00:05:57;48.20;;;21.85;;
37299;SDS011;23184;51.902;12.836;2023-12-07T00:08:22;47.03;;;22.80;;
37299;SDS011;23184;51.902;12.836;2023-12-07T00:10:48;45.75;;;21.30;;
37299;SDS011;23184;51.902;12.836;2023-12-07T00:13:13;53.53;;;23.20;;
37299;SDS011;23184;51.902;12.836;2023-12-07T00:15:39;49.15;;;22.23;;
37299;SDS011;23184;51.902;12.836;2023-12-07T00:18:05;46.58;;;22.98;;
37299;SDS011;23184;51.902;12.836;2023-12-07T00:20:30;48.50;;;24.15;;
37299;SDS011;23184;51.902;12.836;2023-12-07T00:22:56;51.15;;;23.58;;
37299;SDS011;23184;51.902;12.836;2023-12-07T00:25:21;47.50;;;22.95;;
37299;SDS011;23184;51.902;12.836;2023-12-07T00:27:47;49.92;;;23.65;;
37299;SDS011;23184;51.902;12.836;2023-12-07T00:30:13;49.30;;;23.38;;
37299;SDS011;23184;51.902;12.836;2023-12-07T00:32:39;50.97;;;24.95;;
37299;SDS011;23184;51.902;12.836;2023-12-07T00:35:08;45.33;;;24.30;;
37299;SDS011;23184;51.902;12.836;2023-12-07T00:37:34;49.08;;;24.52;;
37299;SDS011;23184;51.902;12.836;2023-12-07T00:39:59;50.85;;;24.67;;
37299;SDS011;23184;51.902;12.836;2023-12-07T00:42:26;48.78;;;25.38;;
37299;SDS011;23184;51.902;12.836;2023-12-07T00:44:52;53.05;;;25.70;;
37299;SDS011;23184;51.902;12.836;2023-12-07T00:47:18;53.67;;;26.73;;
37299;SDS011;23184;51.902;12.836;2023-12-07T00:49:43;50.60;;;24.95;;
37299;SDS011;23184;51.902;12.836;2023-12-07T00:52:09;48.60;;;25.73;;
37299;SDS011;23184;51.902;12.836;2023-12-07T00:54:34;53.40;;;25.73;;
37299;SDS011;23184;51.902;12.836;2023-12-07T00:57:00;46.95;;;24.92;;
37299;SDS011;23184;51.902;12.836;2023-12-07T00:59:25;44.70;;;23.98;;
37299;SDS011;23184;51.902;12.836;2023-12-07T01:01:51;51.72;;;25.10;;
37299;SDS011;23184;51.902;12.836;2023-12-07T01:04:16;48.72;;;25.70;;
37299;SDS011;23184;51.902;12.836;2023-12-07T01:06:43;50.90;;;25.73;;
37299;SDS011;23184;51.902;12.836;2023-12-07T01:09:08;47.97;;;24.77;;
37299;SDS011;23184;51.902;12.836;2023-12-07T01:11:38;49.30;;;25.80;;
37299;SDS011;23184;51.902;12.836;2023-12-07T01:14:04;51.80;;;25.10;;
37299;SDS011;23184;51.902;12.836;2023-12-07T01:16:30;54.45;;;26.27;;
37299;SDS011;23184;51.902;12.836;2023-12-07T01:18:56;50.85;;;26.50;;
37299;SDS011;23184;51.902;12.836;2023-12-07T01:21:22;57.00;;;26.60;;
37299;SDS011;23184;51.902;12.836;2023-12-07T01:23:48;55.25;;;27.58;;
37299;SDS011;23184;51.902;12.836;2023-12-07T01:26:14;53.45;;;25.80;;
37299;SDS011;23184;51.902;12.836;2023-12-07T01:28:39;54.55;;;26.75;;
37299;SDS011;23184;51.902;12.836;2023-12-07T01:31:05;55.63;;;26.98;;
37299;SDS011;23184;51.902;12.836;2023-12-07T01:33:30;57.60;;;26.75;;
37299;SDS011;23184;51.902;12.836;2023-12-07T01:35:56;55.80;;;26.05;;
37299;SDS011;23184;51.902;12.836;2023-12-07T01:38:21;58.63;;;26.92;;
37299;SDS011;23184;51.902;12.836;2023-12-07T01:40:47;57.13;;;26.75;;
37299;SDS011;23184;51.902;12.836;2023-12-07T01:43:12;57.45;;;27.35;;
37299;SDS011;23184;51.902;12.836;2023-12-07T01:45:38;55.65;;;27.08;;
37299;SDS011;23184;51.902;12.836;2023-12-07T01:48:03;58.28;;;27.50;;
37299;SDS011;23184;51.902;12.836;2023-12-07T01:50:29;55.88;;;27.10;;
37299;SDS011;23184;51.902;12.836;2023-12-07T01:53:00;59.50;;;28.40;;
37299;SDS011;23184;51.902;12.836;2023-12-07T01:55:27;59.65;;;27.80;;
37299;SDS011;23184;51.902;12.836;2023-12-07T01:57:55;65.78;;;29.33;;
37299;SDS011;23184;51.902;12.836;2023-12-07T02:00:20;68.22;;;30.90;;
37299;SDS011;23184;51.902;12.836;2023-12-07T02:02:46;67.28;;;29.77;;
37299;SDS011;23184;51.902;12.836;2023-12-07T02:05:13;64.03;;;29.55;;
37299;SDS011;23184;51.902;12.836;2023-12-07T02:07:40;71.13;;;29.60;;
37299;SDS011;23184;51.902;12.836;2023-12-07T02:10:06;62.35;;;30.25;;
37299;SDS011;23184;51.902;12.836;2023-12-07T02:12:32;68.40;;;29.77;;
37299;SDS011;23184;51.902;12.836;2023-12-07T02:14:59;68.72;;;31.40;;
37299;SDS011;23184;51.902;12.836;2023-12-07T02:17:38;70.05;;;31.40;;
37299;SDS011;23184;51.902;12.836;2023-12-07T02:22:49;67.13;;;30.60;;
37299;SDS011;23184;51.902;12.836;2023-12-07T02:25:19;67.90;;;31.92;;
37299;SDS011;23184;51.902;12.836;2023-12-07T02:27:48;69.32;;;31.67;;
37299;SDS011;23184;51.902;12.836;2023-12-07T02:30:14;69.95;;;31.98;;
37299;SDS011;23184;51.902;12.836;2023-12-07T02:32:41;77.18;;;31.20;;
37299;SDS011;23184;51.902;12.836;2023-12-07T02:35:09;75.07;;;31.23;;
37299;SDS011;23184;51.902;12.836;2023-12-07T02:37:40;72.15;;;32.92;;
37299;SDS011;23184;51.902;12.836;2023-12-07T02:40:08;78.25;;;33.53;;
37299;SDS011;23184;51.902;12.836;2023-12-07T02:42:35;85.45;;;33.08;;
37299;SDS011;23184;51.902;12.836;2023-12-07T02:45:03;92.10;;;35.00;;
37299;SDS011;23184;51.902;12.836;2023-12-07T02:47:29;84.88;;;33.67;;
37299;SDS011;23184;51.902;12.836;2023-12-07T02:49:55;93.97;;;35.33;;
37299;SDS011;23184;51.902;12.836;2023-12-07T02:52:20;96.47;;;35.72;;
37299;SDS011;23184;51.902;12.836;2023-12-07T02:54:46;97.13;;;34.95;;
37299;SDS011;23184;51.902;12.836;2023-12-07T02:57:13;94.43;;;34.47;;
37299;SDS011;23184;51.902;12.836;2023-12-07T02:59:39;93.88;;;35.20;;
37299;SDS011;23184;51.902;12.836;2023-12-07T03:02:05;96.07;;;37.30;;
37299;SDS011;23184;51.902;12.836;2023-12-07T03:04:31;98.60;;;35.78;;
37299;SDS011;23184;51.902;12.836;2023-12-07T03:06:56;95.38;;;34.85;;
37299;SDS011;23184;51.902;12.836;2023-12-07T03:09:22;89.50;;;35.75;;
37299;SDS011;23184;51.902;12.836;2023-12-07T03:11:47;96.35;;;35.17;;
37299;SDS011;23184;51.902;12.836;2023-12-07T03:14:13;99.60;;;35.88;;
37299;SDS011;23184;51.902;12.836;2023-12-07T03:16:38;93.90;;;34.97;;
37299;SDS011;23184;51.902;12.836;2023-12-07T03:19:04;94.20;;;34.97;;
37299;SDS011;23184;51.902;12.836;2023-12-07T03:21:30;94.90;;;34.80;;
37299;SDS011;23184;51.902;12.836;2023-12-07T03:23:55;95.78;;;35.05;;
37299;SDS011;23184;51.902;12.836;2023-12-07T03:26:21;95.10;;;35.42;;
37299;SDS011;23184;51.902;12.836;2023-12-07T03:28:46;94.40;;;35.28;;
37299;SDS011;23184;51.902;12.836;2023-12-07T03:31:12;90.60;;;34.35;;
37299;SDS011;23184;51.902;12.836;2023-12-07T03:33:37;90.68;;;33.85;;
37299;SDS011;23184;51.902;12.836;2023-12-07T03:36:03;91.75;;;33.47;;
37299;SDS011;23184;51.902;12.836;2023-12-07T03:38:29;89.88;;;34.60;;
37299;SDS011;23184;51.902;12.836;2023-12-07T03:40:55;96.05;;;35.55;;
37299;SDS011;23184;51.902;12.836;2023-12-07T03:43:20;88.75;;;35.75;;
37299;SDS011;23184;51.902;12.836;2023-12-07T03:45:46;105.28;;;37.40;;
37299;SDS011;23184;51.902;12.836;2023-12-07T03:48:12;106.38;;;37.33;;
37299;SDS011;23184;51.902;12.836;2023-12-07T03:50:38;96.13;;;34.90;;
37299;SDS011;23184;51.902;12.836;2023-12-07T03:53:03;108.90;;;38.13;;
37299;SDS011;23184;51.902;12.836;2023-12-07T03:55:29;105.75;;;36.63;;
37299;SDS011;23184;51.902;12.836;2023-12-07T03:57:54;102.90;;;37.33;;
37299;SDS011;23184;51.902;12.836;2023-12-07T04:00:19;108.85;;;36.67;;
37299;SDS011;23184;51.902;12.836;2023-12-07T04:02:46;119.47;;;38.80;;
37299;SDS011;23184;51.902;12.836;2023-12-07T04:05:12;104.97;;;38.22;;
37299;SDS011;23184;51.902;12.836;2023-12-07T04:07:38;115.28;;;38.00;;
37299;SDS011;23184;51.902;12.836;2023-12-07T04:10:04;109.80;;;37.10;;
37299;SDS011;23184;51.902;12.836;2023-12-07T04:12:31;115.10;;;35.35;;
37299;SDS011;23184;51.902;12.836;2023-12-07T04:14:57;104.93;;;36.00;;
37299;SDS011;23184;51.902;12.836;2023-12-07T04:17:22;109.35;;;37.35;;
37299;SDS011;23184;51.902;12.836;2023-12-07T04:19:47;121.68;;;40.42;;
37299;SDS011;23184;51.902;12.836;2023-12-07T04:22:13;125.63;;;41.08;;
37299;SDS011;23184;51.902;12.836;2023-12-07T04:24:38;111.47;;;37.60;;
37299;SDS011;23184;51.902;12.836;2023-12-07T04:27:04;119.30;;;40.17;;
37299;SDS011;23184;51.902;12.836;2023-12-07T04:29:29;115.63;;;39.17;;
37299;SDS011;23184;51.902;12.836;2023-12-07T04:31:55;115.20;;;36.10;;
37299;SDS011;23184;51.902;12.836;2023-12-07T04:34:20;122.22;;;39.70;;
37299;SDS011;23184;51.902;12.836;2023-12-07T04:36:46;110.90;;;38.28;;
37299;SDS011;23184;51.902;12.836;2023-12-07T04:39:11;109.53;;;37.78;;
37299;SDS011;23184;51.902;12.836;2023-12-07T04:41:37;117.82;;;38.40;;
37299;SDS011;23184;51.902;12.836;2023-12-07T04:44:02;115.90;;;38.78;;
37299;SDS011;23184;51.902;12.836;2023-12-07T04:46:28;121.40;;;37.53;;
37299;SDS011;23184;51.902;12.836;2023-12-07T04:48:54;105.13;;;36.63;;
37299;SDS011;23184;51.902;12.836;2023-12-07T04:51:19;113.60;;;37.20;;
37299;SDS011;23184;51.902;12.836;2023-12-07T04:53:45;123.93;;;40.83;;
37299;SDS011;23184;51.902;12.836;2023-12-07T04:56:11;118.20;;;37.40;;
37299;SDS011;23184;51.902;12.836;2023-12-07T04:58:37;118.72;;;38.05;;
37299;SDS011;23184;51.902;12.836;2023-12-07T05:01:02;121.35;;;38.13;;
37299;SDS011;23184;51.902;12.836;2023-12-07T05:03:29;121.72;;;39.80;;
37299;SDS011;23184;51.902;12.836;2023-12-07T05:05:54;112.38;;;38.45;;
37299;SDS011;23184;51.902;12.836;2023-12-07T05:08:20;121.78;;;41.35;;
37299;SDS011;23184;51.902;12.836;2023-12-07T05:10:45;122.30;;;40.60;;
37299;SDS011;23184;51.902;12.836;2023-12-07T05:13:11;119.72;;;41.45;;
37299;SDS011;23184;51.902;12.836;2023-12-07T05:15:37;122.57;;;40.20;;
37299;SDS011;23184;51.902;12.836;2023-12-07T05:18:02;121.32;;;41.08;;
37299;SDS011;23184;51.902;12.836;2023-12-07T05:20:28;124.75;;;41.55;;
37299;SDS011;23184;51.902;12.836;2023-12-07T05:22:54;134.93;;;41.67;;
37299;SDS011;23184;51.902;12.836;2023-12-07T05:25:19;132.65;;;41.88;;
37299;SDS011;23184;51.902;12.836;2023-12-07T05:27:45;126.72;;;41.28;;
37299;SDS011;23184;51.902;12.836;2023-12-07T05:30:10;109.68;;;37.88;;
37299;SDS011;23184;51.902;12.836;2023-12-07T05:32:37;121.28;;;40.17;;
37299;SDS011;23184;51.902;12.836;2023-12-07T05:35:03;121.15;;;39.40;;
37299;SDS011;23184;51.902;12.836;2023-12-07T05:37:29;114.65;;;39.88;;
37299;SDS011;23184;51.902;12.836;2023-12-07T05:39:54;119.10;;;39.88;;
37299;SDS011;23184;51.902;12.836;2023-12-07T05:42:20;113.22;;;38.70;;
37299;SDS011;23184;51.902;12.836;2023-12-07T05:44:46;119.13;;;39.58;;
37299;SDS011;23184;51.902;12.836;2023-12-07T05:47:11;113.35;;;38.38;;
37299;SDS011;23184;51.902;12.836;2023-12-07T05:49:37;119.05;;;38.92;;
37299;SDS011;23184;51.902;12.836;2023-12-07T05:52:02;114.72;;;37.60;;
37299;SDS011;23184;51.902;12.836;2023-12-07T05:54:28;107.47;;;35.20;;
37299;SDS011;23184;51.902;12.836;2023-12-07T05:56:53;108.90;;;37.20;;
37299;SDS011;23184;51.902;12.836;2023-12-07T05:59:19;112.07;;;38.65;;
37299;SDS011;23184;51.902;12.836;2023-12-07T06:01:44;109.38;;;35.97;;
37299;SDS011;23184;51.902;12.836;2023-12-07T06:04:10;114.15;;;38.35;;
37299;SDS011;23184;51.902;12.836;2023-12-07T06:06:37;98.53;;;37.28;;
37299;SDS011;23184;51.902;12.836;2023-12-07T06:09:03;104.38;;;35.75;;
37299;SDS011;23184;51.902;12.836;2023-12-07T06:11:30;95.82;;;35.92;;
37299;SDS011;23184;51.902;12.836;2023-12-07T06:13:56;105.22;;;35.05;;
37299;SDS011;23184;51.902;12.836;2023-12-07T06:16:23;104.03;;;35.72;;
37299;SDS011;23184;51.902;12.836;2023-12-07T06:18:49;96.88;;;33.50;;
37299;SDS011;23184;51.902;12.836;2023-12-07T06:21:15;99.13;;;34.50;;
37299;SDS011;23184;51.902;12.836;2023-12-07T06:23:40;90.18;;;32.90;;
37299;SDS011;23184;51.902;12.836;2023-12-07T06:26:06;86.30;;;32.67;;
37299;SDS011;23184;51.902;12.836;2023-12-07T06:28:32;108.03;;;37.30;;
37299;SDS011;23184;51.902;12.836;2023-12-07T06:30:58;94.28;;;31.83;;
37299;SDS011;23184;51.902;12.836;2023-12-07T06:33:33;92.80;;;32.35;;
37299;SDS011;23184;51.902;12.836;2023-12-07T06:35:59;100.10;;;33.63;;
37299;SDS011;23184;51.902;12.836;2023-12-07T06:38:25;93.15;;;32.67;;
37299;SDS011;23184;51.902;12.836;2023-12-07T06:40:51;91.07;;;32.13;;
37299;SDS011;23184;51.902;12.836;2023-12-07T06:43:16;96.07;;;33.67;;
37299;SDS011;23184;51.902;12.836;2023-12-07T06:45:42;92.95;;;32.33;;
37299;SDS011;23184;51.902;12.836;2023-12-07T06:48:08;102.10;;;35.20;;
37299;SDS011;23184;51.902;12.836;2023-12-07T06:50:33;97.10;;;35.80;;
37299;SDS011;23184;51.902;12.836;2023-12-07T06:52:59;87.22;;;32.08;;
37299;SDS011;23184;51.902;12.836;2023-12-07T06:55:24;86.72;;;30.58;;
37299;SDS011;23184;51.902;12.836;2023-12-07T06:57:50;83.07;;;29.88;;
37299;SDS011;23184;51.902;12.836;2023-12-07T07:00:15;85.28;;;31.52;;
37299;SDS011;23184;51.902;12.836;2023-12-07T07:02:43;84.82;;;31.45;;
37299;SDS011;23184;51.902;12.836;2023-12-07T07:05:08;76.90;;;29.90;;
37299;SDS011;23184;51.902;12.836;2023-12-07T07:07:36;89.03;;;31.17;;
37299;SDS011;23184;51.902;12.836;2023-12-07T07:10:02;94.93;;;32.30;;
37299;SDS011;23184;51.902;12.836;2023-12-07T07:12:27;89.32;;;34.05;;
37299;SDS011;23184;51.902;12.836;2023-12-07T07:14:54;86.43;;;31.27;;
37299;SDS011;23184;51.902;12.836;2023-12-07T07:17:20;92.38;;;31.35;;
37299;SDS011;23184;51.902;12.836;2023-12-07T07:19:45;90.43;;;32.40;;
37299;SDS011;23184;51.902;12.836;2023-12-07T07:22:11;88.72;;;31.10;;
37299;SDS011;23184;51.902;12.836;2023-12-07T07:24:36;92.10;;;33.35;;
37299;SDS011;23184;51.902;12.836;2023-12-07T07:27:02;92.35;;;31.20;;
37299;SDS011;23184;51.902;12.836;2023-12-07T07:29:27;96.40;;;33.28;;
37299;SDS011;23184;51.902;12.836;2023-12-07T07:31:53;90.55;;;30.50;;
37299;SDS011;23184;51.902;12.836;2023-12-07T07:34:19;80.15;;;30.40;;
37299;SDS011;23184;51.902;12.836;2023-12-07T07:36:44;85.47;;;30.58;;
37299;SDS011;23184;51.902;12.836;2023-12-07T07:39:10;86.35;;;31.40;;
37299;SDS011;23184;51.902;12.836;2023-12-07T07:41:38;79.30;;;28.63;;
37299;SDS011;23184;51.902;12.836;2023-12-07T07:44:04;80.47;;;30.58;;
37299;SDS011;23184;51.902;12.836;2023-12-07T07:46:29;77.40;;;28.65;;
37299;SDS011;23184;51.902;12.836;2023-12-07T07:48:55;83.53;;;28.80;;
37299;SDS011;23184;51.902;12.836;2023-12-07T07:51:20;82.68;;;31.17;;
37299;SDS011;23184;51.902;12.836;2023-12-07T07:53:46;77.78;;;29.95;;
37299;SDS011;23184;51.902;12.836;2023-12-07T07:56:11;79.40;;;29.17;;
37299;SDS011;23184;51.902;12.836;2023-12-07T07:58:37;77.88;;;28.35;;
37299;SDS011;23184;51.902;12.836;2023-12-07T08:01:02;71.90;;;28.20;;
37299;SDS011;23184;51.902;12.836;2023-12-07T08:03:28;81.70;;;30.13;;
37299;SDS011;23184;51.902;12.836;2023-12-07T08:05:53;81.03;;;30.02;;
37299;SDS011;23184;51.902;12.836;2023-12-07T08:08:19;83.50;;;29.05;;
37299;SDS011;23184;51.902;12.836;2023-12-07T08:10:44;84.88;;;29.77;;
37299;SDS011;23184;51.902;12.836;2023-12-07T08:13:10;76.00;;;28.55;;
37299;SDS011;23184;51.902;12.836;2023-12-07T08:15:35;83.22;;;31.08;;
37299;SDS011;23184;51.902;12.836;2023-12-07T08:18:01;82.97;;;29.67;;
37299;SDS011;23184;51.902;12.836;2023-12-07T08:20:27;85.97;;;29.63;;
37299;SDS011;23184;51.902;12.836;2023-12-07T08:22:52;79.35;;;27.77;;
37299;SDS011;23184;51.902;12.836;2023-12-07T08:25:18;90.88;;;29.63;;
37299;SDS011;23184;51.902;12.836;2023-12-07T08:27:44;78.57;;;28.23;;
37299;SDS011;23184;51.902;12.836;2023-12-07T08:30:11;86.07;;;30.40;;
37299;SDS011;23184;51.902;12.836;2023-12-07T08:32:37;92.05;;;29.80;;
37299;SDS011;23184;51.902;12.836;2023-12-07T08:35:03;97.78;;;31.50;;
37299;SDS011;23184;51.902;12.836;2023-12-07T08:37:30;80.85;;;26.70;;
37299;SDS011;23184;51.902;12.836;2023-12-07T08:39:56;93.22;;;30.73;;
37299;SDS011;23184;51.902;12.836;2023-12-07T08:42:22;94.13;;;29.52;;
37299;SDS011;23184;51.902;12.836;2023-12-07T08:44:47;87.25;;;29.77;;
37299;SDS011;23184;51.902;12.836;2023-12-07T08:47:13;85.75;;;29.05;;
37299;SDS011;23184;51.902;12.836;2023-12-07T08:49:38;98.25;;;30.30;;
37299;SDS011;23184;51.902;12.836;2023-12-07T08:52:04;87.93;;;27.13;;
37299;SDS011;23184;51.902;12.836;2023-12-07T08:54:29;84.88;;;27.10;;
37299;SDS011;23184;51.902;12.836;2023-12-07T08:56:55;79.45;;;26.67;;
37299;SDS011;23184;51.902;12.836;2023-12-07T08:59:21;72.57;;;25.08;;
37299;SDS011;23184;51.902;12.836;2023-12-07T09:01:46;74.00;;;27.80;;
37299;SDS011;23184;51.902;12.836;2023-12-07T09:04:11;71.38;;;24.45;;
37299;SDS011;23184;51.902;12.836;2023-12-07T09:06:37;69.78;;;22.85;;
37299;SDS011;23184;51.902;12.836;2023-12-07T09:09:03;61.05;;;22.73;;
37299;SDS011;23184;51.902;12.836;2023-12-07T09:11:32;66.55;;;23.85;;
37299;SDS011;23184;51.902;12.836;2023-12-07T09:13:58;73.68;;;24.92;;
37299;SDS011;23184;51.902;12.836;2023-12-07T09:16:23;63.35;;;23.23;;
37299;SDS011;23184;51.902;12.836;2023-12-07T09:18:50;82.07;;;25.80;;
37299;SDS011;23184;51.902;12.836;2023-12-07T09:21:16;74.68;;;25.55;;
37299;SDS011;23184;51.902;12.836;2023-12-07T09:23:42;74.25;;;26.05;;
37299;SDS011;23184;51.902;12.836;2023-12-07T09:26:07;67.68;;;24.95;;
37299;SDS011;23184;51.902;12.836;2023-12-07T09:28:33;63.97;;;23.67;;
37299;SDS011;23184;51.902;12.836;2023-12-07T09:30:58;66.85;;;23.77;;
37299;SDS011;23184;51.902;12.836;2023-12-07T09:33:24;65.20;;;25.45;;
37299;SDS011;23184;51.902;12.836;2023-12-07T09:35:50;66.20;;;24.40;;
37299;SDS011;23184;51.902;12.836;2023-12-07T09:38:16;69.00;;;25.08;;
37299;SDS011;23184;51.902;12.836;2023-12-07T09:40:42;59.70;;;21.67;;
37299;SDS011;23184;51.902;12.836;2023-12-07T09:43:07;62.45;;;23.98;;
37299;SDS011;23184;51.902;12.836;2023-12-07T09:45:33;58.03;;;23.75;;
37299;SDS011;23184;51.902;12.836;2023-12-07T09:47:59;55.58;;;22.05;;
37299;SDS011;23184;51.902;12.836;2023-12-07T09:50:26;64.05;;;22.88;;
37299;SDS011;23184;51.902;12.836;2023-12-07T09:52:53;62.72;;;24.05;;
37299;SDS011;23184;51.902;12.836;2023-12-07T09:55:21;56.25;;;21.73;;
37299;SDS011;23184;51.902;12.836;2023-12-07T09:57:48;60.58;;;22.42;;
37299;SDS011;23184;51.902;12.836;2023-12-07T10:00:14;54.95;;;21.33;;
37299;SDS011;23184;51.902;12.836;2023-12-07T10:02:41;53.63;;;21.30;;
37299;SDS011;23184;51.902;12.836;2023-12-07T10:05:11;52.72;;;20.33;;
37299;SDS011;23184;51.902;12.836;2023-12-07T10:07:42;49.53;;;20.50;;
37299;SDS011;23184;51.902;12.836;2023-12-07T10:10:09;58.50;;;21.27;;
37299;SDS011;23184;51.902;12.836;2023-12-07T10:12:45;50.33;;;19.73;;
37299;SDS011;23184;51.902;12.836;2023-12-07T10:17:48;56.58;;;22.70;;
37299;SDS011;23184;51.902;12.836;2023-12-07T10:20:18;56.67;;;20.85;;
37299;SDS011;23184;51.902;12.836;2023-12-07T10:23:03;58.78;;;21.23;;
37299;SDS011;23184;51.902;12.836;2023-12-07T10:25:35;52.95;;;20.83;;
37299;SDS011;23184;51.902;12.836;2023-12-07T10:28:01;56.47;;;21.55;;
37299;SDS011;23184;51.902;12.836;2023-12-07T10:30:31;55.22;;;21.70;;
37299;SDS011;23184;51.902;12.836;2023-12-07T10:32:57;64.45;;;22.90;;
37299;SDS011;23184;51.902;12.836;2023-12-07T10:35:23;64.13;;;23.35;;
37299;SDS011;23184;51.902;12.836;2023-12-07T10:37:49;77.95;;;25.63;;
37299;SDS011;23184;51.902;12.836;2023-12-07T10:40:14;76.35;;;24.77;;
37299;SDS011;23184;51.902;12.836;2023-12-07T10:42:40;81.72;;;25.33;;
37299;SDS011;23184;51.902;12.836;2023-12-07T10:45:07;81.07;;;25.13;;
37299;SDS011;23184;51.902;12.836;2023-12-07T10:47:34;82.22;;;24.10;;
37299;SDS011;23184;51.902;12.836;2023-12-07T10:50:02;76.40;;;24.58;;
37299;SDS011;23184;51.902;12.836;2023-12-07T10:52:39;75.28;;;24.30;;
37299;SDS011;23184;51.902;12.836;2023-12-07T10:55:13;74.70;;;23.77;;
37299;SDS011;23184;51.902;12.836;2023-12-07T10:57:51;72.57;;;22.52;;
37299;SDS011;23184;51.902;12.836;2023-12-07T11:00:17;71.97;;;24.75;;
37299;SDS011;23184;51.902;12.836;2023-12-07T11:02:44;77.72;;;22.77;;
37299;SDS011;23184;51.902;12.836;2023-12-07T11:05:11;70.43;;;23.50;;
37299;SDS011;23184;51.902;12.836;2023-12-07T11:07:50;67.00;;;24.25;;
37299;SDS011;23184;51.902;12.836;2023-12-07T11:10:24;63.70;;;24.55;;
37299;SDS011;23184;51.902;12.836;2023-12-07T11:13:07;71.85;;;24.40;;
37299;SDS011;23184;51.902;12.836;2023-12-07T11:15:41;60.67;;;23.38;;
37299;SDS011;23184;51.902;12.836;2023-12-07T11:18:06;67.85;;;24.40;;
37299;SDS011;23184;51.902;12.836;2023-12-07T11:20:39;87.38;;;27.38;;
37299;SDS011;23184;51.902;12.836;2023-12-07T11:23:17;71.07;;;25.48;;
37299;SDS011;23184;51.902;12.836;2023-12-07T11:25:45;81.50;;;28.33;;
37299;SDS011;23184;51.902;12.836;2023-12-07T11:28:11;79.40;;;28.73;;
37299;SDS011;23184;51.902;12.836;2023-12-07T11:30:38;70.72;;;26.73;;
37299;SDS011;23184;51.902;12.836;2023-12-07T11:33:09;70.97;;;27.95;;
37299;SDS011;23184;51.902;12.836;2023-12-07T11:36:02;69.47;;;27.48;;
37299;SDS011;23184;51.902;12.836;2023-12-07T11:38:28;75.78;;;29.02;;
37299;SDS011;23184;51.902;12.836;2023-12-07T11:40:54;73.25;;;28.75;;
37299;SDS011;23184;51.902;12.836;2023-12-07T11:45:58;71.68;;;28.27;;
37299;SDS011;23184;51.902;12.836;2023-12-07T11:48:24;64.53;;;27.35;;
37299;SDS011;23184;51.902;12.836;2023-12-07T11:51:11;67.45;;;28.73;;
37299;SDS011;23184;51.902;12.836;2023-12-07T11:53:37;70.10;;;28.50;;
37299;SDS011;23184;51.902;12.836;2023-12-07T11:56:04;75.97;;;30.33;;
37299;SDS011;23184;51.902;12.836;2023-12-07T11:58:32;73.93;;;29.95;;
37299;SDS011;23184;51.902;12.836;2023-12-07T12:00:59;74.30;;;32.47;;
37299;SDS011;23184;51.902;12.836;2023-12-07T12:03:26;71.30;;;29.65;;
37299;SDS011;23184;51.902;12.836;2023-12-07T12:05:52;71.50;;;30.65;;
37299;SDS011;23184;51.902;12.836;2023-12-07T12:08:18;68.95;;;29.75;;
37299;SDS011;23184;51.902;12.836;2023-12-07T12:10:44;73.88;;;30.48;;
37299;SDS011;23184;51.902;12.836;2023-12-07T12:13:10;72.57;;;31.40;;
37299;SDS011;23184;51.902;12.836;2023-12-07T12:15:37;68.53;;;30.13;;
37299;SDS011;23184;51.902;12.836;2023-12-07T12:18:04;70.18;;;30.08;;
37299;SDS011;23184;51.902;12.836;2023-12-07T12:20:31;66.05;;;30.50;;
37299;SDS011;23184;51.902;12.836;2023-12-07T12:22:57;65.82;;;31.45;;
37299;SDS011;23184;51.902;12.836;2023-12-07T12:25:33;68.15;;;32.00;;
37299;SDS011;23184;51.902;12.836;2023-12-07T12:28:01;65.35;;;29.95;;
37299;SDS011;23184;51.902;12.836;2023-12-07T12:30:28;66.25;;;29.90;;
37299;SDS011;23184;51.902;12.836;2023-12-07T12:32:55;71.63;;;31.60;;
37299;SDS011;23184;51.902;12.836;2023-12-07T12:35:21;66.70;;;30.70;;
37299;SDS011;23184;51.902;12.836;2023-12-07T12:37:47;65.60;;;30.27;;
37299;SDS011;23184;51.902;12.836;2023-12-07T12:40:20;77.05;;;32.88;;
37299;SDS011;23184;51.902;12.836;2023-12-07T12:42:51;69.38;;;33.20;;
37299;SDS011;23184;51.902;12.836;2023-12-07T12:45:17;75.35;;;32.88;;
37299;SDS011;23184;51.902;12.836;2023-12-07T12:47:44;67.57;;;31.60;;
37299;SDS011;23184;51.902;12.836;2023-12-07T12:50:10;67.63;;;31.98;;
37299;SDS011;23184;51.902;12.836;2023-12-07T12:52:39;68.80;;;31.10;;
37299;SDS011;23184;51.902;12.836;2023-12-07T12:55:08;67.72;;;31.65;;
37299;SDS011;23184;51.902;12.836;2023-12-07T12:57:35;66.90;;;31.10;;
37299;SDS011;23184;51.902;12.836;2023-12-07T13:00:01;63.95;;;31.17;;
37299;SDS011;23184;51.902;12.836;2023-12-07T13:02:27;61.45;;;30.05;;
37299;SDS011;23184;51.902;12.836;2023-12-07T13:04:53;64.07;;;31.30;;
37299;SDS011;23184;51.902;12.836;2023-12-07T13:07:19;70.72;;;31.38;;
37299;SDS011;23184;51.902;12.836;2023-12-07T13:09:44;66.05;;;32.38;;
37299;SDS011;23184;51.902;12.836;2023-12-07T13:12:10;66.18;;;30.65;;
37299;SDS011;23184;51.902;12.836;2023-12-07T13:14:35;65.60;;;30.05;;
37299;SDS011;23184;51.902;12.836;2023-12-07T13:17:03;67.43;;;28.98;;
37299;SDS011;23184;51.902;12.836;2023-12-07T13:19:29;66.13;;;30.42;;
37299;SDS011;23184;51.902;12.836;2023-12-07T13:21:55;68.05;;;29.90;;
37299;SDS011;23184;51.902;12.836;2023-12-07T13:24:20;63.28;;;28.65;;
37299;SDS011;23184;51.902;12.836;2023-12-07T13:26:46;63.95;;;30.58;;
37299;SDS011;23184;51.902;12.836;2023-12-07T13:29:12;63.42;;;29.20;;
37299;SDS011;23184;51.902;12.836;2023-12-07T13:31:38;56.92;;;28.60;;
37299;SDS011;23184;51.902;12.836;2023-12-07T13:34:03;59.05;;;29.30;;
37299;SDS011;23184;51.902;12.836;2023-12-07T13:36:35;63.72;;;29.63;;
37299;SDS011;23184;51.902;12.836;2023-12-07T13:39:01;71.88;;;30.08;;
37299;SDS011;23184;51.902;12.836;2023-12-07T13:41:29;57.38;;;28.98;;
37299;SDS011;23184;51.902;12.836;2023-12-07T13:43:55;63.88;;;29.98;;
37299;SDS011;23184;51.902;12.836;2023-12-07T13:46:20;56.97;;;27.83;;
37299;SDS011;23184;51.902;12.836;2023-12-07T13:48:46;61.20;;;28.67;;
37299;SDS011;23184;51.902;12.836;2023-12-07T13:51:12;63.22;;;27.05;;
37299;SDS011;23184;51.902;12.836;2023-12-07T13:53:37;53.78;;;27.00;;
37299;SDS011;23184;51.902;12.836;2023-12-07T13:56:03;53.75;;;25.27;;
37299;SDS011;23184;51.902;12.836;2023-12-07T13:58:30;53.65;;;26.27;;
37299;SDS011;23184;51.902;12.836;2023-12-07T14:00:55;48.78;;;25.15;;
37299;SDS011;23184;51.902;12.836;2023-12-07T14:03:21;55.28;;;26.60;;
37299;SDS011;23184;51.902;12.836;2023-12-07T14:05:48;56.20;;;26.45;;
37299;SDS011;23184;51.902;12.836;2023-12-07T14:08:14;54.90;;;26.13;;
37299;SDS011;23184;51.902;12.836;2023-12-07T14:10:39;54.00;;;26.88;;